createdAt,value
2022-08-17T00:00:51.962Z,18
2022-08-17T00:15:24.945Z,15
2022-08-17T00:30:24.561Z,17
2022-08-17T00:45:24.680Z,14
2022-08-17T01:00:24.100Z,18
2022-08-17T01:15:24.818Z,16
2022-08-17T01:30:59.475Z,18
2022-08-17T01:45:25.013Z,16
2022-08-17T02:00:24.848Z,25
2022-08-17T02:15:24.570Z,17
2022-08-17T02:31:03.280Z,18
2022-08-17T02:45:24.611Z,17
2022-08-17T03:00:24.667Z,17
2022-08-17T03:15:24.964Z,17
2022-08-17T03:30:24.440Z,23
2022-08-17T03:45:24.376Z,21
2022-08-17T04:00:24.734Z,18
2022-08-17T04:15:24.764Z,19
2022-08-17T04:30:24.416Z,20
2022-08-17T04:45:24.726Z,24
2022-08-17T05:00:24.886Z,24
2022-08-17T05:15:24.369Z,27
2022-08-17T05:30:24.707Z,24
2022-08-17T05:42:22.643Z,31
2022-08-17T05:46:05.243Z,43
2022-08-17T06:01:05.812Z,31
2022-08-17T06:16:34.743Z,35
2022-08-17T06:31:05.790Z,34
2022-08-17T06:46:06.170Z,25
2022-08-17T07:01:06.777Z,23
2022-08-17T07:16:05.765Z,21
2022-08-17T07:31:05.622Z,25
2022-08-17T07:46:05.501Z,19
2022-08-17T08:01:05.307Z,18
2022-08-17T08:16:05.656Z,17
2022-08-17T09:16:06.461Z,14
2022-08-17T09:46:22.680Z,15
2022-08-17T10:00:04.794Z,15
2022-08-17T10:15:24.460Z,19
2022-08-17T10:30:25.189Z,11
2022-08-17T10:45:24.913Z,9
2022-08-17T11:00:27.978Z,11
2022-08-17T11:15:26.757Z,8
2022-08-17T11:30:26.983Z,12
2022-08-17T11:45:33.034Z,7
2022-08-17T12:00:24.676Z,9
2022-08-17T12:15:25.131Z,8
2022-08-17T12:30:24.296Z,8
2022-08-17T12:45:24.957Z,10
2022-08-17T13:00:25.140Z,8
2022-08-17T13:15:24.553Z,9
2022-08-17T13:30:25.079Z,9
2022-08-17T13:45:38.813Z,10
2022-08-17T14:00:24.180Z,8
2022-08-17T14:15:56.775Z,7
2022-08-17T14:30:24.524Z,8
2022-08-17T14:45:33.469Z,6
2022-08-17T15:00:24.737Z,7
2022-08-17T15:15:24.382Z,11
2022-08-17T15:30:25.149Z,7
2022-08-17T15:45:24.629Z,8
2022-08-17T16:00:25.026Z,7
2022-08-17T16:15:24.899Z,9
2022-08-17T16:30:24.669Z,10
2022-08-17T16:45:24.917Z,8
2022-08-17T17:00:24.407Z,9
2022-08-17T17:15:24.927Z,8
2022-08-17T17:30:24.597Z,8
2022-08-17T17:45:24.607Z,12
2022-08-17T18:00:25.012Z,9
2022-08-17T18:30:24.093Z,10
2022-08-17T18:45:23.398Z,6
2022-08-17T19:00:03.036Z,6
2022-08-17T19:00:24.257Z,14
2022-08-17T19:15:24.588Z,14
2022-08-17T19:30:24.423Z,14
2022-08-17T19:45:24.716Z,14
2022-08-17T20:00:24.179Z,13
2022-08-17T20:15:23.880Z,13
2022-08-17T20:30:23.977Z,12
2022-08-17T20:45:24.105Z,13
2022-08-17T21:00:24.391Z,14
2022-08-17T21:15:24.862Z,15
2022-08-17T21:30:25.251Z,14
2022-08-17T21:45:24.630Z,20
2022-08-17T22:00:24.601Z,15
2022-08-17T22:15:24.277Z,15
2022-08-17T22:30:24.009Z,16
2022-08-17T22:45:24.391Z,15
2022-08-17T23:00:24.443Z,19
2022-08-17T23:15:24.174Z,21
2022-08-17T23:30:24.547Z,19
2022-08-17T23:45:24.264Z,21
